Time;durP1;ratioP1;P1;durP2;ratioP2;P2;SDS_P1;SDS_P2;PMS_P1;PMS_P2;Temp;Humidity;BMP_temperature;BMP_pressure;BME280_temperature;BME280_humidity;BME280_pressure;Samples;Min_cycle;Max_cycle;Signal;HPM_P1;HPM_P2
2022/04/28 00:01:58;;;;;;;35.43;19.30;;;9.70;99.90;;;;;;5072692;28;20185;-54
2022/04/28 00:04:24;;;;;;;31.43;18.83;;;9.70;99.90;;;;;;5072580;28;20181;-56
2022/04/28 00:06:50;;;;;;;33.43;19.77;;;9.70;99.90;;;;;;5071677;28;20186;-56
2022/04/28 00:09:16;;;;;;;32.10;18.87;;;9.70;99.90;;;;;;5072431;28;20187;-58
2022/04/28 00:11:42;;;;;;;34.47;18.40;;;9.70;99.90;;;;;;5072505;28;20170;-57
2022/04/28 00:14:08;;;;;;;35.20;19.70;;;9.70;99.90;;;;;;5072665;28;20240;-55
2022/04/28 00:16:37;;;;;;;29.47;17.60;;;9.70;99.90;;;;;;5072238;28;20183;-55
2022/04/28 00:19:03;;;;;;;32.47;18.70;;;9.80;99.90;;;;;;5072581;28;20175;-56
2022/04/28 00:21:30;;;;;;;31.93;17.90;;;9.80;99.90;;;;;;5071995;28;20284;-55
2022/04/28 00:23:55;;;;;;;27.80;16.80;;;9.80;99.90;;;;;;5071152;28;20198;-54
2022/04/28 00:26:21;;;;;;;28.93;17.43;;;9.80;99.90;;;;;;5071945;28;20178;-57
2022/04/28 00:28:47;;;;;;;29.93;17.33;;;9.80;99.90;;;;;;5075736;28;20177;-56
2022/04/28 00:31:13;;;;;;;30.90;17.63;;;9.70;99.90;;;;;;5092681;28;20243;-55
2022/04/28 00:33:42;;;;;;;30.30;16.57;;;9.70;99.90;;;;;;5092373;28;20231;-52
2022/04/28 00:36:12;;;;;;;31.20;17.23;;;9.70;99.90;;;;;;5092381;28;20256;-54
2022/04/28 00:38:38;;;;;;;31.60;18.20;;;9.70;99.90;;;;;;5092226;28;20184;-57
2022/04/28 00:41:03;;;;;;;29.33;17.43;;;9.70;99.90;;;;;;5092548;28;20188;-56
2022/04/28 00:43:30;;;;;;;28.10;16.27;;;9.70;99.90;;;;;;5092117;28;20185;-55
2022/04/28 00:45:56;;;;;;;27.10;16.87;;;9.70;99.90;;;;;;5092489;28;20248;-54
2022/04/28 00:51:08;;;;;;;27.80;17.03;;;9.70;99.90;;;;;;5092554;28;20254;-56
2022/04/28 00:53:41;;;;;;;29.90;17.17;;;9.70;99.90;;;;;;5092217;28;20212;-54
2022/04/28 00:56:12;;;;;;;27.50;15.80;;;9.70;99.90;;;;;;5092304;28;20180;-54
2022/04/28 00:58:39;;;;;;;28.13;17.40;;;9.70;99.90;;;;;;5092075;28;20673;-57
2022/04/28 01:01:05;;;;;;;28.70;17.20;;;9.70;99.90;;;;;;5091947;28;20656;-54
2022/04/28 01:03:31;;;;;;;29.67;17.57;;;9.70;99.90;;;;;;5091757;28;20287;-54
2022/04/28 01:05:58;;;;;;;30.17;18.07;;;9.70;99.90;;;;;;5091788;28;20270;-54
2022/04/28 01:08:24;;;;;;;28.07;17.27;;;9.70;99.90;;;;;;5091645;28;20196;-55
2022/04/28 01:10:52;;;;;;;26.53;16.63;;;9.70;99.90;;;;;;5091288;28;20710;-55
2022/04/28 01:13:18;;;;;;;29.93;17.73;;;9.70;99.90;;;;;;5091427;28;20292;-56
2022/04/28 01:15:49;;;;;;;27.23;17.47;;;9.70;99.90;;;;;;5091572;28;20663;-54
2022/04/28 01:18:16;;;;;;;28.87;16.70;;;9.70;99.90;;;;;;5091561;28;20165;-57
2022/04/28 01:20:43;;;;;;;27.87;16.00;;;9.70;99.90;;;;;;5091826;28;20276;-54
2022/04/28 01:23:10;;;;;;;26.97;16.00;;;9.70;99.90;;;;;;5092040;28;20185;-57
2022/04/28 01:25:35;;;;;;;27.23;16.43;;;9.70;99.90;;;;;;5091608;28;20177;-55
2022/04/28 01:28:01;;;;;;;31.93;17.67;;;9.70;99.90;;;;;;5091560;28;20190;-55
2022/04/28 01:30:28;;;;;;;28.23;16.97;;;9.70;99.90;;;;;;5074215;28;20679;-53
2022/04/28 01:32:57;;;;;;;27.70;16.10;;;9.70;99.90;;;;;;5071193;28;20253;-54
2022/04/28 01:35:23;;;;;;;29.93;17.03;;;9.70;99.90;;;;;;5071165;28;20183;-54
2022/04/28 01:37:49;;;;;;;28.70;16.87;;;9.70;99.90;;;;;;5071518;28;20181;-54
2022/04/28 01:40:16;;;;;;;29.00;17.57;;;9.60;99.90;;;;;;5071381;28;20182;-63
2022/04/28 01:42:43;;;;;;;31.47;17.20;;;9.60;99.90;;;;;;5071338;28;20687;-57
2022/04/28 01:45:10;;;;;;;31.73;17.03;;;9.60;99.90;;;;;;5071041;28;20189;-57
2022/04/28 01:47:36;;;;;;;28.63;17.17;;;9.60;99.90;;;;;;5071034;28;20182;-55
2022/04/28 01:50:04;;;;;;;26.83;16.50;;;9.60;99.90;;;;;;5071519;28;20182;-54
2022/04/28 01:55:15;;;;;;;32.20;17.87;;;9.70;99.90;;;;;;5071749;28;20177;-54
2022/04/28 01:57:41;;;;;;;35.87;18.73;;;9.70;99.90;;;;;;5071159;28;20176;-55
2022/04/28 02:00:08;;;;;;;32.60;17.80;;;9.70;99.90;;;;;;5071337;28;20543;-54
2022/04/28 02:02:34;;;;;;;32.93;18.63;;;9.70;99.90;;;;;;5069551;28;20190;-55
2022/04/28 02:05:04;;;;;;;32.63;18.30;;;9.70;99.90;;;;;;5071046;28;20202;-55
2022/04/28 02:07:30;;;;;;;36.70;18.90;;;9.80;99.90;;;;;;5070864;28;20208;-54
2022/04/28 02:09:57;;;;;;;30.63;18.00;;;9.70;99.90;;;;;;5070369;28;20649;-54
2022/04/28 02:12:27;;;;;;;42.33;19.23;;;9.70;99.90;;;;;;5070666;28;20217;-55
2022/04/28 02:14:54;;;;;;;32.67;19.33;;;9.70;99.90;;;;;;5071042;28;20234;-55
2022/04/28 02:17:33;;;;;;;40.43;19.37;;;9.70;99.90;;;;;;5070894;28;20223;-57
2022/04/28 02:20:03;;;;;;;34.03;19.07;;;9.70;99.90;;;;;;5071282;28;20636;-53
2022/04/28 02:22:29;;;;;;;34.93;19.90;;;9.70;99.90;;;;;;5072729;28;20226;-55
2022/04/28 02:24:55;;;;;;;37.50;20.37;;;9.70;99.90;;;;;;5074622;28;20204;-55
2022/04/28 02:27:24;;;;;;;37.47;21.03;;;9.70;99.90;;;;;;5074656;28;20299;-57
2022/04/28 02:29:53;;;;;;;36.87;20.27;;;9.70;99.90;;;;;;5086587;28;20578;-54
2022/04/28 02:32:19;;;;;;;38.23;21.00;;;9.70;99.90;;;;;;5094696;28;20205;-55
2022/04/28 02:34:45;;;;;;;37.00;22.07;;;9.70;99.90;;;;;;5095155;28;20182;-54
2022/04/28 02:37:11;;;;;;;40.17;22.60;;;9.70;99.90;;;;;;5094770;28;20281;-53
2022/04/28 02:39:37;;;;;;;38.83;21.70;;;9.70;99.90;;;;;;5094728;28;20607;-57
2022/04/28 02:42:03;;;;;;;36.27;21.43;;;9.70;99.90;;;;;;5094824;28;20170;-54
2022/04/28 02:44:28;;;;;;;43.30;23.90;;;9.70;99.90;;;;;;5094743;28;20589;-56
2022/04/28 02:46:54;;;;;;;36.90;21.50;;;9.70;99.90;;;;;;5094516;28;20275;-55
2022/04/28 02:49:20;;;;;;;45.90;22.70;;;9.70;99.90;;;;;;5094218;28;20199;-53
2022/04/28 02:51:46;;;;;;;43.83;23.83;;;9.70;99.90;;;;;;5094407;28;20261;-56
2022/04/28 02:54:12;;;;;;;41.67;22.10;;;9.70;99.90;;;;;;5094051;28;20217;-57
2022/04/28 02:56:38;;;;;;;40.97;21.83;;;9.70;99.90;;;;;;5094235;28;20200;-56
2022/04/28 02:59:05;;;;;;;44.30;24.70;;;9.70;99.90;;;;;;5092711;28;20641;-57
2022/04/28 03:01:31;;;;;;;52.60;22.80;;;9.70;99.90;;;;;;5092597;28;20263;-55
2022/04/28 03:03:57;;;;;;;43.67;22.80;;;9.70;99.90;;;;;;5094008;28;20674;-54
2022/04/28 03:11:53;;;;;;;44.53;22.57;;;9.70;99.90;;;;;;5094049;28;20192;-54
2022/04/28 03:14:19;;;;;;;40.43;22.43;;;9.60;99.90;;;;;;5094009;28;20566;-54
2022/04/28 03:16:45;;;;;;;40.60;23.27;;;9.60;99.90;;;;;;5093668;28;20205;-54
2022/04/28 03:19:11;;;;;;;41.07;22.97;;;9.70;99.90;;;;;;5094039;28;20177;-54
2022/04/28 03:21:37;;;;;;;41.17;23.33;;;9.60;99.90;;;;;;5093651;28;20261;-53
2022/04/28 03:24:04;;;;;;;46.17;24.00;;;9.60;99.90;;;;;;5093760;28;20756;-54
2022/04/28 03:26:31;;;;;;;44.57;24.40;;;9.60;99.90;;;;;;5093646;28;20173;-54
2022/04/28 03:28:57;;;;;;;43.93;24.17;;;9.60;99.90;;;;;;5088899;28;20512;-55
2022/04/28 03:31:24;;;;;;;40.93;22.67;;;9.60;99.90;;;;;;5073078;28;20202;-55
2022/04/28 03:33:50;;;;;;;39.83;23.60;;;9.60;99.90;;;;;;5070777;28;20212;-57
2022/04/28 03:39:00;;;;;;;46.77;23.23;;;9.60;99.90;;;;;;5073490;28;20596;-55
2022/04/28 03:41:26;;;;;;;46.43;24.40;;;9.60;99.90;;;;;;5072770;28;20179;-54
2022/04/28 03:43:51;;;;;;;44.77;23.90;;;9.60;99.90;;;;;;5073061;28;20264;-53
2022/04/28 03:46:20;;;;;;;46.57;23.23;;;9.60;99.90;;;;;;5072848;28;20183;-54
2022/04/28 03:48:48;;;;;;;43.43;23.10;;;9.60;99.90;;;;;;5073189;28;20188;-52
2022/04/28 03:51:14;;;;;;;39.50;20.67;;;9.60;99.90;;;;;;5073082;28;20189;-54
2022/04/28 03:53:40;;;;;;;43.63;23.20;;;9.60;99.90;;;;;;5072596;28;20317;-55
2022/04/28 03:56:06;;;;;;;45.30;23.93;;;9.60;99.90;;;;;;5073095;28;20165;-57
2022/04/28 03:58:32;;;;;;;39.27;22.23;;;9.50;99.90;;;;;;5072262;28;20299;-51
2022/04/28 04:00:59;;;;;;;43.47;22.87;;;9.50;99.90;;;;;;5073063;28;20182;-55
2022/04/28 04:03:25;;;;;;;46.67;23.63;;;9.50;99.90;;;;;;5072375;28;20181;-56
2022/04/28 04:05:51;;;;;;;47.40;25.00;;;9.50;99.90;;;;;;5072942;28;20174;-51
2022/04/28 04:08:17;;;;;;;47.93;24.50;;;9.50;99.90;;;;;;5071136;28;20591;-54
2022/04/28 04:10:42;;;;;;;46.77;24.43;;;9.60;99.90;;;;;;5072324;28;20189;-55
2022/04/28 04:13:08;;;;;;;41.37;23.67;;;9.60;99.90;;;;;;5072039;28;20237;-52
2022/04/28 04:15:34;;;;;;;45.53;23.63;;;9.60;99.90;;;;;;5072104;28;20182;-52
2022/04/28 04:18:00;;;;;;;49.80;24.00;;;9.60;99.90;;;;;;5072957;28;20179;-55
2022/04/28 04:20:27;;;;;;;41.37;22.47;;;9.60;99.90;;;;;;5071940;28;20186;-52
2022/04/28 04:22:53;;;;;;;45.00;24.13;;;9.60;99.90;;;;;;5071937;28;20316;-55
2022/04/28 04:25:20;;;;;;;45.27;23.17;;;9.50;99.90;;;;;;5072004;28;20182;-54
2022/04/28 04:27:46;;;;;;;48.60;24.40;;;9.50;99.90;;;;;;5071747;28;20189;-54
2022/04/28 04:32:56;;;;;;;43.50;23.43;;;9.50;99.90;;;;;;5071589;28;20227;-54
2022/04/28 04:35:23;;;;;;;40.57;22.20;;;9.50;99.90;;;;;;5071948;28;20186;-51
2022/04/28 04:37:50;;;;;;;54.40;25.50;;;9.50;99.90;;;;;;5072068;28;20274;-54
2022/04/28 04:40:16;;;;;;;51.87;26.93;;;9.50;99.90;;;;;;5071604;28;20209;-54
2022/04/28 04:42:42;;;;;;;47.30;25.87;;;9.50;99.90;;;;;;5070208;28;20207;-53
2022/04/28 04:45:09;;;;;;;49.73;25.33;;;9.50;99.90;;;;;;5071673;28;20274;-49
2022/04/28 04:47:36;;;;;;;44.70;24.10;;;9.50;99.90;;;;;;5071485;28;20176;-52
2022/04/28 04:50:04;;;;;;;60.77;26.83;;;9.40;99.90;;;;;;5071084;28;20284;-53
2022/04/28 04:52:30;;;;;;;49.53;25.93;;;9.50;99.90;;;;;;5070531;28;20323;-51
2022/04/28 04:54:56;;;;;;;51.17;25.03;;;9.50;99.90;;;;;;5071037;28;20208;-53
2022/04/28 04:57:22;;;;;;;41.97;21.63;;;9.50;99.90;;;;;;5071818;28;20181;-53
2022/04/28 04:59:48;;;;;;;44.37;22.97;;;9.50;99.90;;;;;;5070986;28;20184;-53
2022/04/28 05:02:14;;;;;;;52.10;23.90;;;9.40;99.90;;;;;;5070977;28;20193;-51
2022/04/28 05:04:39;;;;;;;44.77;22.20;;;9.40;99.90;;;;;;5069662;28;20189;-49
2022/04/28 05:07:06;;;;;;;45.17;22.60;;;9.40;99.90;;;;;;5071158;28;20211;-49
2022/04/28 05:09:32;;;;;;;45.23;24.27;;;9.40;99.90;;;;;;5070942;28;20187;-50
2022/04/28 05:11:58;;;;;;;54.17;25.13;;;9.40;99.90;;;;;;5071111;28;20196;-51
2022/04/28 05:14:24;;;;;;;51.00;24.57;;;9.40;99.90;;;;;;5069461;28;20688;-54
2022/04/28 05:16:50;;;;;;;39.33;23.03;;;9.40;99.90;;;;;;5070752;28;20182;-50
2022/04/28 05:19:16;;;;;;;51.73;23.80;;;9.50;99.90;;;;;;5070735;28;20231;-52
2022/04/28 05:21:42;;;;;;;45.20;23.00;;;9.50;99.90;;;;;;5070710;28;20229;-55
2022/04/28 05:24:07;;;;;;;50.60;24.50;;;9.50;99.90;;;;;;5070957;28;20189;-58
2022/04/28 05:26:35;;;;;;;46.20;23.20;;;9.50;99.90;;;;;;5051237;28;20207;-53
2022/04/28 05:29:01;;;;;;;39.23;21.03;;;9.50;99.90;;;;;;5051026;28;20189;-56
2022/04/28 05:31:27;;;;;;;42.57;20.63;;;9.50;99.90;;;;;;5051038;28;20269;-60
2022/04/28 05:33:53;;;;;;;35.50;18.93;;;9.50;99.90;;;;;;5050913;28;20735;-57
2022/04/28 05:36:20;;;;;;;37.77;18.60;;;9.50;99.90;;;;;;5049689;28;20186;-53
2022/04/28 05:38:46;;;;;;;43.23;20.30;;;9.50;99.90;;;;;;5050613;28;20177;-51
2022/04/28 05:41:12;;;;;;;43.77;19.87;;;9.50;99.90;;;;;;5049675;28;20189;-52
2022/04/28 05:46:24;;;;;;;28.90;15.40;;;9.60;99.90;;;;;;5050634;28;20267;-53
2022/04/28 05:48:50;;;;;;;32.90;17.97;;;9.60;99.90;;;;;;5049975;28;20186;-54
2022/04/28 05:51:18;;;;;;;30.83;16.60;;;9.50;99.90;;;;;;5049110;28;20201;-55
2022/04/28 05:53:44;;;;;;;36.03;18.97;;;9.60;99.90;;;;;;5050236;28;20209;-55
2022/04/28 05:56:09;;;;;;;34.03;18.27;;;9.60;99.90;;;;;;5050188;28;20187;-58
2022/04/28 05:58:35;;;;;;;36.30;17.97;;;9.70;99.90;;;;;;5054269;28;20204;-54
2022/04/28 06:01:01;;;;;;;33.20;18.10;;;9.70;99.90;;;;;;5054371;28;20182;-53
2022/04/28 06:03:27;;;;;;;29.37;16.40;;;9.70;99.90;;;;;;5054374;28;20192;-52
2022/04/28 06:05:53;;;;;;;32.00;17.27;;;9.80;99.90;;;;;;5054023;28;20259;-54
2022/04/28 06:08:18;;;;;;;26.80;16.87;;;9.80;99.90;;;;;;5054627;28;20184;-54
2022/04/28 06:10:44;;;;;;;31.77;17.47;;;9.80;99.90;;;;;;5054458;28;20194;-59
2022/04/28 06:13:11;;;;;;;28.30;16.53;;;9.80;99.90;;;;;;5054850;28;20206;-54
2022/04/28 06:15:37;;;;;;;19.77;12.07;;;9.90;99.90;;;;;;5054286;28;20197;-54
2022/04/28 06:18:03;;;;;;;28.17;15.47;;;9.80;99.90;;;;;;5054025;28;20187;-55
2022/04/28 06:20:28;;;;;;;28.93;15.20;;;9.80;99.90;;;;;;5052552;28;20636;-57
2022/04/28 06:22:55;;;;;;;25.27;15.43;;;9.80;99.90;;;;;;5053727;28;20685;-54
2022/04/28 06:25:23;;;;;;;27.70;14.93;;;9.90;99.90;;;;;;5054083;28;20182;-55
2022/04/28 06:27:50;;;;;;;19.63;12.57;;;9.80;99.90;;;;;;5053888;28;20179;-56
2022/04/28 06:30:16;;;;;;;15.97;10.40;;;9.80;99.90;;;;;;5052855;28;20262;-56
2022/04/28 06:32:42;;;;;;;29.57;15.27;;;9.80;99.90;;;;;;5053836;28;20304;-56
2022/04/28 06:35:08;;;;;;;16.67;9.10;;;9.80;99.90;;;;;;5054047;28;20293;-55
2022/04/28 06:37:34;;;;;;;16.30;9.10;;;9.90;99.90;;;;;;5052598;28;20655;-54
2022/04/28 06:40:00;;;;;;;20.00;10.60;;;9.80;99.90;;;;;;5054023;28;20182;-58
2022/04/28 06:42:26;;;;;;;19.03;10.93;;;9.80;99.90;;;;;;5054342;28;20179;-59
2022/04/28 06:44:52;;;;;;;15.20;9.23;;;9.70;99.90;;;;;;5054300;28;20232;-54
2022/04/28 06:47:18;;;;;;;18.93;10.50;;;9.70;99.90;;;;;;5053841;28;20551;-56
2022/04/28 06:49:43;;;;;;;16.13;9.73;;;9.70;99.90;;;;;;5053836;28;20187;-54
2022/04/28 06:52:09;;;;;;;14.80;9.70;;;9.70;99.90;;;;;;5053754;28;20187;-56
2022/04/28 06:54:35;;;;;;;20.57;10.87;;;9.70;99.90;;;;;;5053304;28;20194;-53
2022/04/28 06:57:02;;;;;;;24.63;13.30;;;9.70;99.90;;;;;;5053481;28;20183;-58
2022/04/28 06:59:28;;;;;;;20.47;11.03;;;9.80;99.90;;;;;;5054012;28;20186;-53
2022/04/28 07:01:54;;;;;;;21.93;9.77;;;9.90;99.90;;;;;;5053063;28;20665;-56
2022/04/28 07:04:19;;;;;;;16.87;8.97;;;9.90;99.90;;;;;;5053658;28;20186;-54
2022/04/28 07:06:45;;;;;;;17.83;8.53;;;10.00;99.90;;;;;;5053238;28;20186;-54
2022/04/28 07:09:11;;;;;;;11.67;7.70;;;10.00;99.90;;;;;;5052083;28;20333;-54
2022/04/28 07:11:37;;;;;;;14.90;7.67;;;10.00;99.90;;;;;;5053009;28;20182;-55
2022/04/28 07:14:03;;;;;;;12.73;7.20;;;10.00;99.90;;;;;;5053403;28;20280;-55
2022/04/28 07:16:29;;;;;;;13.63;7.00;;;10.00;99.90;;;;;;5053183;28;20539;-52
2022/04/28 07:18:55;;;;;;;13.63;7.23;;;10.00;99.90;;;;;;5053066;28;20179;-54
2022/04/28 07:21:21;;;;;;;14.03;7.73;;;10.00;99.90;;;;;;5052404;28;20224;-57
2022/04/28 07:23:47;;;;;;;17.63;9.40;;;10.00;99.90;;;;;;5052811;28;20190;-57
2022/04/28 07:26:13;;;;;;;20.73;11.50;;;10.00;99.90;;;;;;5053059;28;20187;-55
2022/04/28 07:28:39;;;;;;;15.30;9.57;;;10.00;99.90;;;;;;5052963;28;20557;-58
2022/04/28 07:31:05;;;;;;;27.00;11.47;;;10.00;99.90;;;;;;5052693;28;20578;-55
2022/04/28 07:33:30;;;;;;;17.10;11.20;;;10.00;99.90;;;;;;5052859;28;20244;-54
2022/04/28 07:35:56;;;;;;;21.83;11.83;;;10.00;99.90;;;;;;5052324;28;20333;-56
2022/04/28 07:38:22;;;;;;;22.40;10.90;;;10.00;99.90;;;;;;5051130;28;20191;-55
2022/04/28 07:40:50;;;;;;;21.83;11.40;;;10.00;99.90;;;;;;5052414;28;20192;-53
2022/04/28 07:43:16;;;;;;;17.30;10.53;;;10.00;99.90;;;;;;5052780;28;20190;-54
2022/04/28 07:45:42;;;;;;;19.63;10.40;;;10.00;99.90;;;;;;5050663;28;20593;-58
2022/04/28 07:48:07;;;;;;;29.27;12.13;;;9.90;99.90;;;;;;5052840;28;20190;-55
2022/04/28 07:50:34;;;;;;;24.27;13.67;;;9.90;99.90;;;;;;5052681;28;20186;-57
2022/04/28 07:53:00;;;;;;;25.23;13.53;;;9.80;99.90;;;;;;5052300;28;20305;-56
2022/04/28 07:55:26;;;;;;;21.23;13.03;;;9.80;99.90;;;;;;5052699;28;20316;-57
2022/04/28 07:57:52;;;;;;;18.20;11.70;;;9.80;99.90;;;;;;5034518;28;20204;-51
2022/04/28 08:00:18;;;;;;;21.77;13.57;;;9.80;99.90;;;;;;5052546;28;20577;-56
2022/04/28 08:02:44;;;;;;;24.50;12.93;;;9.90;99.90;;;;;;5052452;28;20552;-55
2022/04/28 08:05:10;;;;;;;16.97;10.90;;;9.90;99.90;;;;;;5052646;28;20191;-57
2022/04/28 08:07:35;;;;;;;20.20;12.37;;;9.90;99.90;;;;;;5052587;28;20183;-64
2022/04/28 08:10:04;;;;;;;24.77;14.07;;;9.80;99.90;;;;;;5052211;28;20188;-57
2022/04/28 08:12:30;;;;;;;23.47;12.47;;;9.80;99.90;;;;;;5052116;28;20187;-53
2022/04/28 08:14:55;;;;;;;21.80;13.30;;;9.90;99.90;;;;;;5051985;28;20188;-52
2022/04/28 08:17:21;;;;;;;24.70;12.57;;;9.90;99.90;;;;;;5052584;28;20683;-54
2022/04/28 08:19:47;;;;;;;22.63;13.93;;;9.90;99.90;;;;;;5051434;28;20236;-55
2022/04/28 08:22:13;;;;;;;26.77;14.37;;;9.90;99.90;;;;;;5051541;28;20255;-56
2022/04/28 08:24:39;;;;;;;17.70;11.40;;;10.00;99.90;;;;;;5052022;28;20215;-55
2022/04/28 08:27:05;;;;;;;20.07;11.77;;;10.00;99.90;;;;;;5052219;28;20178;-61
2022/04/28 08:29:31;;;;;;;22.37;11.10;;;10.10;99.90;;;;;;5051947;28;20193;-56
2022/04/28 08:31:57;;;;;;;21.20;12.67;;;10.10;99.90;;;;;;5051895;28;20179;-55
2022/04/28 08:34:23;;;;;;;20.87;12.20;;;10.10;99.90;;;;;;5050826;28;20216;-54
2022/04/28 08:36:50;;;;;;;21.90;13.03;;;10.10;99.90;;;;;;5051529;28;20287;-55
2022/04/28 08:39:16;;;;;;;23.30;13.57;;;10.20;99.90;;;;;;5051626;28;20179;-55
2022/04/28 08:41:47;;;;;;;21.37;12.77;;;10.30;99.90;;;;;;5050600;28;20211;-53
2022/04/28 08:44:21;;;;;;;19.87;12.63;;;10.40;99.90;;;;;;5051314;28;20291;-55
2022/04/28 08:46:51;;;;;;;23.30;12.77;;;10.50;99.90;;;;;;5051080;28;20207;-56
2022/04/28 08:49:22;;;;;;;28.17;14.30;;;10.60;99.90;;;;;;5050587;28;20250;-52
2022/04/28 08:51:54;;;;;;;26.97;15.00;;;10.70;99.90;;;;;;5050277;28;20611;-55
2022/04/28 08:54:21;;;;;;;28.07;15.13;;;10.70;99.90;;;;;;5051474;28;20520;-54
2022/04/28 08:56:49;;;;;;;27.97;16.23;;;10.60;99.90;;;;;;5051440;28;20258;-57
2022/04/28 08:59:15;;;;;;;25.27;14.63;;;10.60;99.90;;;;;;5051556;28;20183;-55
2022/04/28 09:01:42;;;;;;;24.07;14.77;;;10.60;99.90;;;;;;5050056;28;20215;-57
2022/04/28 09:04:10;;;;;;;26.53;14.97;;;10.60;99.90;;;;;;5051143;28;20207;-54
2022/04/28 09:06:41;;;;;;;21.17;11.37;;;10.80;99.90;;;;;;5049652;28;20184;-57
2022/04/28 09:09:15;;;;;;;17.07;10.63;;;10.90;99.90;;;;;;5049646;28;20180;-55
2022/04/28 09:11:42;;;;;;;15.53;9.67;;;11.00;99.90;;;;;;5050672;28;20189;-60
2022/04/28 09:14:15;;;;;;;14.70;9.67;;;11.00;99.90;;;;;;5051266;28;20205;-54
2022/04/28 09:16:42;;;;;;;13.67;8.17;;;11.00;99.90;;;;;;5049396;28;20192;-58
2022/04/28 09:19:12;;;;;;;15.70;9.57;;;10.90;99.90;;;;;;5051019;28;20170;-58
2022/04/28 09:21:39;;;;;;;14.77;8.37;;;11.00;99.90;;;;;;5050468;28;20335;-56
2022/04/28 09:24:06;;;;;;;17.43;10.57;;;11.00;99.90;;;;;;5051229;28;20187;-55
2022/04/28 09:26:33;;;;;;;20.93;11.77;;;11.10;99.90;;;;;;5051457;28;20189;-59
2022/04/28 09:29:03;;;;;;;12.50;7.80;;;11.10;99.90;;;;;;5050553;28;20615;-57
2022/04/28 09:31:37;;;;;;;15.70;8.33;;;11.10;99.90;;;;;;5050428;28;20178;-56
2022/04/28 09:34:11;;;;;;;13.63;8.30;;;11.10;99.90;;;;;;5050514;28;20307;-57
2022/04/28 09:36:40;;;;;;;10.03;6.30;;;11.10;99.90;;;;;;5051123;28;20347;-58
2022/04/28 09:39:08;;;;;;;11.37;6.97;;;11.00;99.90;;;;;;5050984;28;20542;-56
2022/04/28 09:44:20;;;;;;;9.97;5.63;;;10.90;99.90;;;;;;5050966;28;20192;-59
2022/04/28 09:46:47;;;;;;;14.50;7.67;;;11.10;99.90;;;;;;5050917;28;20262;-56
2022/04/28 09:49:18;;;;;;;12.83;7.43;;;11.20;99.90;;;;;;5050419;28;20208;-55
2022/04/28 09:51:45;;;;;;;14.63;6.93;;;11.30;99.90;;;;;;5050440;28;20193;-54
2022/04/28 09:54:12;;;;;;;12.23;8.30;;;11.20;99.90;;;;;;5050449;28;20309;-56
2022/04/28 09:56:40;;;;;;;14.30;7.90;;;11.10;99.90;;;;;;5050607;28;20189;-56
2022/04/28 09:59:08;;;;;;;14.73;8.50;;;11.20;99.90;;;;;;5050728;28;20539;-53
2022/04/28 10:01:35;;;;;;;16.03;7.87;;;11.30;99.90;;;;;;5050561;28;20232;-58
2022/04/28 10:04:01;;;;;;;20.47;8.87;;;11.40;99.90;;;;;;5050413;28;20494;-56
2022/04/28 10:06:33;;;;;;;13.33;7.97;;;11.40;99.90;;;;;;5050424;28;20658;-57
2022/04/28 10:09:12;;;;;;;25.73;8.97;;;11.20;99.90;;;;;;5049992;28;20264;-61
2022/04/28 10:11:38;;;;;;;35.27;25.23;;;11.20;99.90;;;;;;5050470;28;20500;-55
2022/04/28 10:14:06;;;;;;;60.60;44.97;;;11.10;99.90;;;;;;5050720;28;20217;-56
2022/04/28 10:16:33;;;;;;;71.93;52.03;;;11.00;99.90;;;;;;5050423;28;20666;-54
2022/04/28 10:19:27;;;;;;;30.77;21.53;;;10.90;99.90;;;;;;5049181;28;20281;-54
2022/04/28 10:22:03;;;;;;;18.00;10.40;;;11.00;99.90;;;;;;5045653;28;20301;-57
2022/04/28 10:33:02;;;;;;;16.77;7.10;;;11.10;99.90;;;;;;5050019;28;20260;-56
2022/04/28 10:35:51;;;;;;;16.23;7.97;;;11.10;99.90;;;;;;5050519;28;20194;-56
2022/04/28 10:38:26;;;;;;;13.50;7.00;;;11.20;99.90;;;;;;5048669;28;20185;-58
2022/04/28 10:41:04;;;;;;;13.30;7.33;;;11.20;99.90;;;;;;5049859;28;20170;-52
2022/04/28 10:43:33;;;;;;;21.83;10.57;;;11.30;99.90;;;;;;5052102;28;20658;-58
2022/04/28 10:46:08;;;;;;;12.73;7.50;;;11.40;99.90;;;;;;5053854;28;20217;-57
2022/04/28 10:48:46;;;;;;;18.20;9.53;;;11.50;99.90;;;;;;5053813;28;20595;-57
2022/04/28 10:51:17;;;;;;;16.77;8.63;;;11.40;99.90;;;;;;5053603;28;20173;-57
2022/04/28 10:54:19;;;;;;;17.83;9.20;;;11.50;99.90;;;;;;5051994;28;20218;-57
2022/04/28 10:56:52;;;;;;;14.27;7.03;;;11.50;99.90;;;;;;5053329;28;20189;-63
2022/04/28 10:59:37;;;;;;;15.07;7.97;;;11.40;99.90;;;;;;5053211;28;20196;-56
2022/04/28 11:02:14;;;;;;;13.57;6.30;;;11.30;99.90;;;;;;5053558;28;20242;-55
2022/04/28 11:04:42;;;;;;;16.43;7.07;;;11.10;99.90;;;;;;5053481;28;20195;-60
2022/04/28 11:07:09;;;;;;;19.90;9.37;;;11.10;99.90;;;;;;5053107;28;20174;-58
2022/04/28 11:09:50;;;;;;;14.33;7.50;;;11.10;99.90;;;;;;5053424;28;20189;-59
2022/04/28 11:12:18;;;;;;;15.07;7.20;;;11.10;99.90;;;;;;5053194;28;20367;-61
2022/04/28 11:14:46;;;;;;;11.97;7.13;;;11.10;99.90;;;;;;5053440;28;20647;-55
2022/04/28 11:17:13;;;;;;;14.53;8.60;;;11.00;99.90;;;;;;5053252;28;20258;-60
2022/04/28 11:19:40;;;;;;;13.83;9.17;;;11.10;99.90;;;;;;5051381;28;20255;-57
2022/04/28 11:22:07;;;;;;;19.17;10.33;;;11.10;99.90;;;;;;5053099;28;20659;-56
2022/04/28 11:24:33;;;;;;;19.70;10.23;;;11.00;99.90;;;;;;5053024;28;20559;-54
2022/04/28 11:26:59;;;;;;;21.13;9.43;;;11.00;99.90;;;;;;5053158;28;20615;-53
2022/04/28 11:29:27;;;;;;;14.30;8.60;;;11.00;99.90;;;;;;5053292;28;20295;-54
2022/04/28 11:31:53;;;;;;;12.43;7.53;;;11.00;99.90;;;;;;5053412;28;20185;-55
2022/04/28 11:34:20;;;;;;;19.53;9.57;;;11.00;99.90;;;;;;5052032;28;20217;-55
2022/04/28 11:36:47;;;;;;;15.20;8.30;;;11.00;99.90;;;;;;5053202;28;20212;-55
2022/04/28 11:39:13;;;;;;;14.93;8.77;;;11.00;99.90;;;;;;5053087;28;20200;-59
2022/04/28 11:41:41;;;;;;;16.80;9.10;;;11.00;99.90;;;;;;5053891;28;20186;-57
2022/04/28 11:44:12;;;;;;;16.13;8.90;;;10.90;99.90;;;;;;5052826;28;20181;-56
2022/04/28 11:46:49;;;;;;;14.90;7.33;;;10.90;99.90;;;;;;5053075;28;20193;-55
2022/04/28 11:49:16;;;;;;;14.63;7.90;;;10.90;99.90;;;;;;5053436;28;20272;-56
2022/04/28 11:51:42;;;;;;;16.07;8.80;;;10.90;99.90;;;;;;5052639;28;20198;-55
2022/04/28 11:54:25;;;;;;;18.20;10.00;;;10.90;99.90;;;;;;5051965;28;20732;-54
2022/04/28 11:57:06;;;;;;;15.70;8.67;;;11.00;99.90;;;;;;5052805;28;20635;-56
2022/04/28 11:59:39;;;;;;;12.27;8.53;;;11.00;99.90;;;;;;5052772;28;20189;-53
2022/04/28 12:02:23;;;;;;;19.07;9.47;;;11.10;99.90;;;;;;5052806;28;20221;-53
2022/04/28 12:04:48;;;;;;;18.17;9.87;;;11.10;99.90;;;;;;5052267;28;20545;-65
2022/04/28 12:07:22;;;;;;;18.67;8.60;;;11.00;99.90;;;;;;5051615;28;20182;-54
2022/04/28 12:15:22;;;;;;;12.40;6.87;;;11.00;99.90;;;;;;5052768;28;20185;-55
2022/04/28 12:20:58;;;;;;;13.93;7.33;;;11.10;99.90;;;;;;5050744;28;20231;-56
2022/04/28 12:23:41;;;;;;;12.60;6.40;;;11.00;99.90;;;;;;5052109;28;20181;-55
2022/04/28 12:26:08;;;;;;;10.87;7.70;;;11.00;99.90;;;;;;5051579;28;20652;-59
2022/04/28 12:28:40;;;;;;;18.60;9.30;;;11.10;99.90;;;;;;5051885;28;20186;-58
2022/04/28 12:31:10;;;;;;;18.73;12.53;;;11.10;99.90;;;;;;5051407;28;20177;-57
2022/04/28 12:33:37;;;;;;;20.63;11.27;;;11.20;99.90;;;;;;5051499;28;20240;-58
2022/04/28 12:36:05;;;;;;;19.40;10.37;;;11.20;99.90;;;;;;5050542;28;20965;-55
2022/04/28 12:38:35;;;;;;;13.17;7.63;;;11.20;99.90;;;;;;5052186;28;20224;-56
2022/04/28 12:41:24;;;;;;;10.83;6.77;;;11.10;99.90;;;;;;5052169;28;20212;-56
2022/04/28 12:43:56;;;;;;;13.47;8.20;;;11.10;99.90;;;;;;5051996;28;20186;-57
2022/04/28 12:46:45;;;;;;;16.20;8.97;;;11.20;99.90;;;;;;5052230;28;20631;-56
2022/04/28 12:49:13;;;;;;;26.20;11.23;;;11.20;99.90;;;;;;5051719;28;20182;-58
2022/04/28 12:51:42;;;;;;;16.10;7.97;;;11.30;99.90;;;;;;5051883;28;20186;-59
2022/04/28 12:54:27;;;;;;;13.87;6.90;;;11.40;99.90;;;;;;5051197;28;20232;-56
2022/04/28 12:56:59;;;;;;;11.87;6.77;;;11.30;99.90;;;;;;5051809;28;20186;-59
2022/04/28 12:59:30;;;;;;;13.60;8.03;;;11.30;99.90;;;;;;5052052;28;20182;-59
2022/04/28 13:01:56;;;;;;;14.17;7.20;;;11.20;99.90;;;;;;5051557;28;20636;-57
2022/04/28 13:04:26;;;;;;;31.43;11.57;;;11.20;99.90;;;;;;5051273;28;20284;-56
2022/04/28 13:06:52;;;;;;;17.60;8.00;;;11.20;99.90;;;;;;5050507;28;20177;-66
2022/04/28 13:09:20;;;;;;;16.57;7.67;;;11.20;99.90;;;;;;5051582;28;20185;-57
2022/04/28 13:11:49;;;;;;;14.33;7.17;;;11.20;99.90;;;;;;5051262;28;20643;-57
2022/04/28 13:14:17;;;;;;;18.10;8.40;;;11.20;99.90;;;;;;5050621;28;20542;-56
2022/04/28 13:16:43;;;;;;;14.80;7.37;;;11.20;99.90;;;;;;5051357;28;20188;-55
2022/04/28 13:19:10;;;;;;;15.67;5.70;;;11.30;99.90;;;;;;5050676;28;20656;-57